createdAt,value
2019-05-26T00:00:09.537Z,0.00
2019-05-26T00:01:09.313Z,0.00
2019-05-26T00:02:09.302Z,0.00
2019-05-26T00:03:09.291Z,0.00
2019-05-26T00:04:09.278Z,0.00
2019-05-26T00:05:09.270Z,0.00
2019-05-26T00:06:09.325Z,0.00
2019-05-26T00:07:09.245Z,0.00
2019-05-26T00:08:09.234Z,0.00
2019-05-26T00:09:09.223Z,0.00
2019-05-26T00:10:09.297Z,0.00
2019-05-26T00:11:09.200Z,0.00
2019-05-26T00:12:09.262Z,0.00
2019-05-26T00:13:09.176Z,0.00
2019-05-26T00:14:09.164Z,0.00
2019-05-26T00:15:09.154Z,0.00
2019-05-26T00:16:09.158Z,0.00
2019-05-26T00:17:09.131Z,0.00
2019-05-26T00:18:09.187Z,0.00
2019-05-26T00:19:09.108Z,0.00
2019-05-26T00:20:09.100Z,0.00
2019-05-26T00:21:09.087Z,0.00
2019-05-26T00:22:09.075Z,0.00
2019-05-26T00:23:09.068Z,0.00
2019-05-26T00:24:09.121Z,0.00
2019-05-26T00:25:09.042Z,0.00
2019-05-26T00:26:09.031Z,0.00
2019-05-26T00:27:09.019Z,0.00
2019-05-26T00:28:09.010Z,0.00
2019-05-26T00:29:08.996Z,0.00
2019-05-26T00:30:09.197Z,0.00
2019-05-26T00:31:08.975Z,0.00
2019-05-26T00:32:08.963Z,0.00
2019-05-26T00:33:08.952Z,0.00
2019-05-26T00:34:08.950Z,0.00
2019-05-26T00:35:08.946Z,0.00
2019-05-26T00:36:08.986Z,0.00
2019-05-26T00:37:08.908Z,0.00
2019-05-26T00:38:08.898Z,0.00
2019-05-26T00:39:08.888Z,0.00
2019-05-26T00:40:08.874Z,0.00
2019-05-26T00:41:08.861Z,0.00
2019-05-26T00:42:08.924Z,0.00
2019-05-26T00:43:08.840Z,0.00
2019-05-26T00:44:08.828Z,0.00
2019-05-26T00:45:08.817Z,0.00
2019-05-26T00:46:08.806Z,0.00
2019-05-26T00:47:08.796Z,0.00
2019-05-26T00:48:08.994Z,0.00
2019-05-26T00:49:08.771Z,0.00
2019-05-26T00:50:08.763Z,0.00
2019-05-26T00:51:08.752Z,0.00
2019-05-26T00:52:08.746Z,0.00
2019-05-26T00:53:08.727Z,0.00
2019-05-26T00:54:08.785Z,0.00
2019-05-26T00:55:08.709Z,0.00
2019-05-26T00:56:08.692Z,0.00
2019-05-26T00:57:08.685Z,0.00
2019-05-26T00:58:08.673Z,0.00
2019-05-26T00:59:08.659Z,0.00
2019-05-26T01:00:08.722Z,0.00
2019-05-26T01:01:08.639Z,0.00
2019-05-26T01:02:08.656Z,0.00
2019-05-26T01:03:08.613Z,0.00
2019-05-26T01:04:08.602Z,0.00
2019-05-26T01:05:08.590Z,0.00
2019-05-26T01:06:08.790Z,0.00
2019-05-26T01:07:08.567Z,0.00
2019-05-26T01:08:08.556Z,0.00
2019-05-26T01:09:08.546Z,0.00
2019-05-26T01:10:08.533Z,0.00
2019-05-26T01:11:08.521Z,0.00
2019-05-26T01:12:08.578Z,0.00
2019-05-26T01:13:08.500Z,0.00
2019-05-26T01:14:08.492Z,0.00
2019-05-26T01:15:08.477Z,0.00
2019-05-26T01:16:08.465Z,0.00
2019-05-26T01:17:08.455Z,0.00
2019-05-26T01:18:08.508Z,0.00
2019-05-26T01:19:08.433Z,0.00
2019-05-26T01:20:08.422Z,0.00
2019-05-26T01:21:08.409Z,0.00
2019-05-26T01:22:08.398Z,0.00
2019-05-26T01:23:08.454Z,0.00
2019-05-26T01:24:08.444Z,0.00
2019-05-26T01:25:08.365Z,0.00
2019-05-26T01:26:08.352Z,0.00
2019-05-26T01:27:08.343Z,0.00
2019-05-26T01:28:08.334Z,0.00
2019-05-26T01:29:08.320Z,0.00
2019-05-26T01:30:08.375Z,0.00
2019-05-26T01:31:08.297Z,0.00
2019-05-26T01:32:08.285Z,0.00
2019-05-26T01:33:08.273Z,0.00
2019-05-26T01:34:08.264Z,0.00
2019-05-26T01:35:08.259Z,0.00
2019-05-26T01:36:08.315Z,0.00
2019-05-26T01:37:08.229Z,0.00
2019-05-26T01:38:22.456Z,0.00
2019-05-26T01:39:09.205Z,0.00
2019-05-26T01:40:08.197Z,0.00
2019-05-26T01:41:08.183Z,0.00
2019-05-26T01:42:08.411Z,0.00
2019-05-26T01:43:08.163Z,0.00
2019-05-26T01:44:08.159Z,0.00
2019-05-26T01:45:08.146Z,0.00
2019-05-26T01:46:08.127Z,0.00
2019-05-26T01:47:08.122Z,0.00
2019-05-26T01:48:08.177Z,0.00
2019-05-26T01:49:08.094Z,0.00
2019-05-26T01:50:08.084Z,0.00
2019-05-26T01:51:08.071Z,0.00
2019-05-26T01:52:08.061Z,0.00
2019-05-26T01:53:08.052Z,0.00
2019-05-26T01:54:08.102Z,0.00
2019-05-26T01:55:08.030Z,0.00
2019-05-26T01:56:08.014Z,0.00
2019-05-26T01:57:08.004Z,0.00
2019-05-26T01:58:07.997Z,0.00
2019-05-26T01:59:07.981Z,0.00
2019-05-26T02:00:08.036Z,0.00
2019-05-26T02:01:07.959Z,0.00
2019-05-26T02:02:07.951Z,0.00
2019-05-26T02:03:07.935Z,0.00
2019-05-26T02:04:07.926Z,0.00
2019-05-26T02:05:07.917Z,0.00
2019-05-26T02:06:07.984Z,0.00
2019-05-26T02:07:07.890Z,0.00
2019-05-26T02:08:11.664Z,0.00
2019-05-26T02:09:07.869Z,0.00
2019-05-26T02:10:07.858Z,0.00
2019-05-26T02:11:07.846Z,0.00
2019-05-26T02:12:08.044Z,0.00
2019-05-26T02:13:07.822Z,0.00
2019-05-26T02:14:07.813Z,0.00
2019-05-26T02:15:07.803Z,0.00
2019-05-26T02:16:07.792Z,0.00
2019-05-26T02:17:07.778Z,0.00
2019-05-26T02:18:07.878Z,0.00
2019-05-26T02:19:07.760Z,0.00
2019-05-26T02:20:07.751Z,0.00
2019-05-26T02:21:07.853Z,0.00
2019-05-26T02:22:07.720Z,0.00
2019-05-26T02:23:07.713Z,0.00
2019-05-26T02:24:07.770Z,0.00
2019-05-26T02:25:07.689Z,0.00
2019-05-26T02:26:07.676Z,0.00
2019-05-26T02:27:07.670Z,0.00
2019-05-26T02:28:07.657Z,0.00
2019-05-26T02:29:07.658Z,0.00
2019-05-26T02:30:07.704Z,0.00
2019-05-26T02:31:07.623Z,0.00
2019-05-26T02:32:07.611Z,0.00
2019-05-26T02:33:07.599Z,0.00
2019-05-26T02:34:07.587Z,0.00
2019-05-26T02:35:07.576Z,0.00
2019-05-26T02:36:07.774Z,0.00
2019-05-26T02:37:07.556Z,0.00
2019-05-26T02:38:07.544Z,0.00
2019-05-26T02:39:07.534Z,0.00
2019-05-26T02:40:07.536Z,0.00
2019-05-26T02:41:07.509Z,0.00
2019-05-26T02:42:07.564Z,0.00
2019-05-26T02:43:07.488Z,0.00
2019-05-26T02:44:07.474Z,0.00
2019-05-26T02:45:07.470Z,0.00
2019-05-26T02:46:07.471Z,0.00
2019-05-26T02:47:07.448Z,0.00
2019-05-26T02:48:07.496Z,0.00
2019-05-26T02:49:07.441Z,0.00
2019-05-26T02:50:07.413Z,0.00
2019-05-26T02:51:07.414Z,0.00
2019-05-26T02:52:07.389Z,0.00
2019-05-26T02:53:07.375Z,0.00
2019-05-26T02:54:07.432Z,0.00
2019-05-26T02:55:07.353Z,0.00
2019-05-26T02:56:07.342Z,0.00
2019-05-26T02:57:07.329Z,0.00
2019-05-26T02:58:07.317Z,5.62
2019-05-26T02:59:07.342Z,5.62
2019-05-26T03:00:07.362Z,5.62
2019-05-26T03:01:07.283Z,5.62
2019-05-26T03:02:07.285Z,5.62
2019-05-26T03:03:07.267Z,5.62
2019-05-26T03:04:07.288Z,5.62
2019-05-26T03:05:07.240Z,5.62
2019-05-26T03:06:07.456Z,11.25
2019-05-26T03:07:07.216Z,11.25
2019-05-26T03:08:07.205Z,11.25
2019-05-26T03:09:22.113Z,11.25
2019-05-26T03:10:08.183Z,11.25
2019-05-26T03:11:07.169Z,11.25
2019-05-26T03:12:07.225Z,16.88
2019-05-26T03:13:07.146Z,16.88
2019-05-26T03:14:07.135Z,16.88
2019-05-26T03:15:07.128Z,16.88
2019-05-26T03:16:07.113Z,22.50
2019-05-26T03:17:07.106Z,22.50
2019-05-26T03:18:07.157Z,22.50
2019-05-26T03:19:07.090Z,28.12
2019-05-26T03:20:07.069Z,28.12
2019-05-26T03:21:07.057Z,28.12
2019-05-26T03:22:07.043Z,33.75
2019-05-26T03:23:07.034Z,33.75
2019-05-26T03:24:07.095Z,33.75
2019-05-26T03:25:07.012Z,39.38
2019-05-26T03:26:07.000Z,39.38
2019-05-26T03:27:06.989Z,45.00
2019-05-26T03:28:06.985Z,45.00
2019-05-26T03:29:06.965Z,50.62
2019-05-26T03:30:07.163Z,50.62
2019-05-26T03:31:06.944Z,50.62
2019-05-26T03:32:06.931Z,56.25
2019-05-26T03:33:06.941Z,61.88
2019-05-26T03:34:06.906Z,61.88
2019-05-26T03:35:06.901Z,67.50
2019-05-26T03:36:10.371Z,73.12
2019-05-26T03:37:06.874Z,73.12
2019-05-26T03:38:06.860Z,78.75
2019-05-26T03:39:06.855Z,84.38
2019-05-26T03:40:06.840Z,84.38
2019-05-26T03:41:06.825Z,90.00
2019-05-26T03:42:07.026Z,90.00
2019-05-26T03:43:06.802Z,95.62
2019-05-26T03:44:06.790Z,95.62
2019-05-26T03:45:06.779Z,101.25
2019-05-26T03:46:06.769Z,101.25
2019-05-26T03:47:06.756Z,101.25
2019-05-26T03:48:06.818Z,106.88
2019-05-26T03:49:06.736Z,112.50
2019-05-26T03:50:06.731Z,112.50
2019-05-26T03:51:06.712Z,112.50
2019-05-26T03:52:06.699Z,118.12
2019-05-26T03:53:06.825Z,118.12
2019-05-26T03:54:06.747Z,123.75
2019-05-26T03:55:06.667Z,123.75
2019-05-26T03:56:06.655Z,129.38
2019-05-26T03:57:06.642Z,129.38
2019-05-26T03:58:06.729Z,129.38
2019-05-26T03:59:06.638Z,135.00
2019-05-26T04:00:06.713Z,135.00
2019-05-26T04:01:06.595Z,140.62
2019-05-26T04:02:06.584Z,146.25
2019-05-26T04:03:06.575Z,146.25
2019-05-26T04:04:06.563Z,151.88
2019-05-26T04:05:06.557Z,157.50
2019-05-26T04:06:06.603Z,163.12
2019-05-26T04:07:06.630Z,168.75
2019-05-26T04:08:06.517Z,168.75
2019-05-26T04:09:06.510Z,174.38
2019-05-26T04:10:06.642Z,180.00
2019-05-26T04:11:06.484Z,185.62
2019-05-26T04:12:06.548Z,185.62
2019-05-26T04:13:06.456Z,191.25
2019-05-26T04:14:06.461Z,191.25
2019-05-26T04:15:06.436Z,196.88
2019-05-26T04:16:06.434Z,202.50
2019-05-26T04:17:06.410Z,208.12
2019-05-26T04:18:06.466Z,213.75
2019-05-26T04:19:06.395Z,219.38
2019-05-26T04:20:06.382Z,219.38
2019-05-26T04:21:06.381Z,219.38
2019-05-26T04:22:06.355Z,225.00
2019-05-26T04:23:06.346Z,225.00
2019-05-26T04:24:06.397Z,230.62
2019-05-26T04:25:06.346Z,241.88
2019-05-26T04:26:06.319Z,247.50
2019-05-26T04:27:06.303Z,247.50
2019-05-26T04:28:06.300Z,253.12
2019-05-26T04:29:06.284Z,258.75
2019-05-26T04:30:06.342Z,258.75
2019-05-26T04:31:06.266Z,258.75
2019-05-26T04:32:06.241Z,264.38
2019-05-26T04:33:06.234Z,264.38
2019-05-26T04:34:06.218Z,264.38
2019-05-26T04:35:06.214Z,264.38
2019-05-26T04:36:06.303Z,264.38
2019-05-26T04:37:06.216Z,264.38
2019-05-26T04:38:06.174Z,264.38
2019-05-26T04:39:06.173Z,264.38
2019-05-26T04:40:24.750Z,270.00
2019-05-26T04:41:07.204Z,275.62
2019-05-26T04:42:06.145Z,281.25
2019-05-26T04:43:06.146Z,286.88
2019-05-26T04:44:06.112Z,292.50
2019-05-26T04:45:06.217Z,298.12
2019-05-26T04:46:06.095Z,298.12
2019-05-26T04:47:06.216Z,298.12
2019-05-26T04:48:06.086Z,298.12
2019-05-26T04:49:06.058Z,303.75
2019-05-26T04:50:06.042Z,303.75
2019-05-26T04:51:06.034Z,303.75
2019-05-26T04:52:06.020Z,309.38
2019-05-26T04:53:07.381Z,309.38
2019-05-26T04:54:06.059Z,315.00
2019-05-26T04:55:06.036Z,315.00
2019-05-26T04:56:05.977Z,320.62
2019-05-26T04:57:05.977Z,320.62
2019-05-26T04:58:05.957Z,320.62
2019-05-26T04:59:06.152Z,320.62
2019-05-26T05:00:05.929Z,326.25
2019-05-26T05:01:05.923Z,326.25
2019-05-26T05:02:05.931Z,331.88
2019-05-26T05:03:05.914Z,337.50
2019-05-26T05:04:05.905Z,343.12
2019-05-26T05:05:05.969Z,348.75
2019-05-26T05:06:05.862Z,354.38
2019-05-26T05:07:05.852Z,360.00
2019-05-26T05:08:05.864Z,365.62
2019-05-26T05:09:05.833Z,371.25
2019-05-26T05:10:05.822Z,365.62
2019-05-26T05:11:05.879Z,376.88
2019-05-26T05:12:05.796Z,388.12
2019-05-26T05:13:05.788Z,393.75
2019-05-26T05:14:05.771Z,399.38
2019-05-26T05:15:05.757Z,405.00
2019-05-26T05:16:05.748Z,405.00
2019-05-26T05:17:05.828Z,416.25
2019-05-26T05:18:05.747Z,421.88
2019-05-26T05:19:05.733Z,421.88
2019-05-26T05:20:05.700Z,427.50
2019-05-26T05:21:05.689Z,438.75
2019-05-26T05:22:05.682Z,444.38
2019-05-26T05:23:05.737Z,450.00
2019-05-26T05:24:05.656Z,455.62
2019-05-26T05:25:13.833Z,461.25
2019-05-26T05:26:06.634Z,472.50
2019-05-26T05:27:05.622Z,472.50
2019-05-26T05:28:05.613Z,483.75
2019-05-26T05:29:05.666Z,489.38
2019-05-26T05:30:05.588Z,495.00
2019-05-26T05:31:05.578Z,500.62
2019-05-26T05:32:05.567Z,506.25
2019-05-26T05:33:05.560Z,511.88
2019-05-26T05:34:05.543Z,523.12
2019-05-26T05:35:05.741Z,528.75
2019-05-26T05:36:05.526Z,534.38
2019-05-26T05:37:05.510Z,534.38
2019-05-26T05:38:05.503Z,540.00
2019-05-26T05:39:05.486Z,545.62
2019-05-26T05:40:05.474Z,556.88
2019-05-26T05:41:05.534Z,568.12
2019-05-26T05:42:05.454Z,579.38
2019-05-26T05:43:05.442Z,590.62
2019-05-26T05:44:05.441Z,596.25
2019-05-26T05:45:05.419Z,618.75
2019-05-26T05:46:05.418Z,646.88
2019-05-26T05:47:05.486Z,759.38
2019-05-26T05:48:05.385Z,1136.25
2019-05-26T05:49:05.374Z,1530.00
2019-05-26T05:50:05.364Z,1648.12
2019-05-26T05:51:05.354Z,1659.38
2019-05-26T05:52:05.340Z,1710.00
2019-05-26T05:53:05.403Z,1676.25
2019-05-26T05:54:05.373Z,1400.62
2019-05-26T05:55:05.305Z,1704.38
2019-05-26T05:56:05.341Z,1777.50
2019-05-26T05:57:05.286Z,1704.38
2019-05-26T05:58:05.272Z,1738.12
2019-05-26T05:59:05.371Z,1726.88
2019-05-26T06:00:05.250Z,1788.75
2019-05-26T06:01:05.241Z,1822.50
2019-05-26T06:02:05.227Z,1822.50
2019-05-26T06:03:05.216Z,1738.12
2019-05-26T06:04:05.203Z,1687.50
2019-05-26T06:05:05.259Z,1642.50
2019-05-26T06:06:05.204Z,1631.25
2019-05-26T06:07:05.173Z,1541.25
2019-05-26T06:08:05.162Z,1541.25
2019-05-26T06:09:05.147Z,1659.38
2019-05-26T06:10:05.139Z,1575.00
2019-05-26T06:11:16.141Z,1614.38
2019-05-26T06:12:06.112Z,1462.50
2019-05-26T06:13:05.105Z,1755.00
2019-05-26T06:14:05.092Z,1850.62
2019-05-26T06:15:05.082Z,1918.12
2019-05-26T06:16:05.073Z,1946.25
2019-05-26T06:17:05.123Z,2047.50
2019-05-26T06:18:05.049Z,2098.12
2019-05-26T06:19:05.036Z,2098.12
2019-05-26T06:20:05.024Z,2103.75
2019-05-26T06:21:05.016Z,2081.25
2019-05-26T06:22:05.004Z,2131.88
2019-05-26T06:23:05.065Z,2070.00
2019-05-26T06:24:04.979Z,2086.88
2019-05-26T06:25:04.968Z,2148.75
2019-05-26T06:26:04.958Z,2210.62
2019-05-26T06:27:04.946Z,2193.75
2019-05-26T06:28:04.937Z,2047.50
2019-05-26T06:29:05.132Z,1867.50
2019-05-26T06:30:04.911Z,1890.00
2019-05-26T06:31:04.899Z,2058.75
2019-05-26T06:32:05.037Z,2002.50
2019-05-26T06:33:04.877Z,2120.62
2019-05-26T06:34:04.881Z,2160.00
2019-05-26T06:35:05.262Z,2131.88
2019-05-26T06:36:04.865Z,2086.88
2019-05-26T06:37:04.835Z,2109.38
2019-05-26T06:38:04.822Z,2165.62
2019-05-26T06:39:04.813Z,2221.88
2019-05-26T06:40:04.804Z,2289.38
2019-05-26T06:41:05.002Z,1625.62
2019-05-26T06:42:04.778Z,2418.75
2019-05-26T06:43:04.767Z,2407.50
2019-05-26T06:44:04.755Z,2475.00
2019-05-26T06:45:04.762Z,2413.12
2019-05-26T06:46:04.734Z,2328.75
2019-05-26T06:47:04.935Z,1811.25
2019-05-26T06:48:04.714Z,1091.25
2019-05-26T06:49:04.700Z,888.75
2019-05-26T06:50:04.689Z,855.00
2019-05-26T06:51:04.678Z,843.75
2019-05-26T06:52:04.670Z,832.50
2019-05-26T06:53:04.723Z,821.25
2019-05-26T06:54:04.650Z,815.62
2019-05-26T06:55:04.634Z,810.00
2019-05-26T06:56:04.621Z,804.38
2019-05-26T06:57:04.611Z,798.75
2019-05-26T06:58:04.599Z,798.75
2019-05-26T06:59:04.658Z,793.12
2019-05-26T07:00:04.576Z,793.12
2019-05-26T07:01:04.583Z,793.12
2019-05-26T07:02:04.575Z,793.12
2019-05-26T07:03:04.547Z,770.62
2019-05-26T07:04:04.531Z,736.88
2019-05-26T07:05:04.733Z,686.25
2019-05-26T07:06:04.529Z,753.75
2019-05-26T07:07:04.498Z,759.38
2019-05-26T07:08:04.485Z,765.00
2019-05-26T07:09:04.483Z,770.62
2019-05-26T07:10:04.464Z,776.25
2019-05-26T07:11:04.520Z,781.88
2019-05-26T07:12:04.447Z,787.50
2019-05-26T07:13:04.430Z,787.50
2019-05-26T07:14:04.419Z,787.50
2019-05-26T07:15:04.414Z,787.50
2019-05-26T07:16:04.405Z,798.75
2019-05-26T07:17:04.462Z,815.62
2019-05-26T07:18:04.449Z,826.88
2019-05-26T07:19:04.362Z,838.12
2019-05-26T07:20:04.350Z,849.38
2019-05-26T07:21:04.338Z,855.00
2019-05-26T07:22:04.332Z,855.00
2019-05-26T07:23:06.227Z,849.38
2019-05-26T07:24:04.306Z,843.75
2019-05-26T07:25:04.294Z,843.75
2019-05-26T07:26:04.288Z,849.38
2019-05-26T07:27:04.271Z,855.00
2019-05-26T07:28:04.267Z,843.75
2019-05-26T07:29:04.315Z,855.00
2019-05-26T07:30:04.241Z,905.62
2019-05-26T07:31:04.229Z,922.50
2019-05-26T07:32:04.217Z,928.12
2019-05-26T07:33:04.204Z,933.75
2019-05-26T07:34:04.195Z,933.75
2019-05-26T07:35:04.511Z,939.38
2019-05-26T07:36:04.175Z,945.00
2019-05-26T07:37:04.162Z,950.62
2019-05-26T07:38:04.149Z,950.62
2019-05-26T07:39:04.140Z,956.25
2019-05-26T07:40:04.128Z,939.38
2019-05-26T07:41:04.187Z,928.12
2019-05-26T07:42:10.538Z,933.75
2019-05-26T07:43:05.095Z,978.75
2019-05-26T07:44:04.084Z,995.62
2019-05-26T07:45:04.072Z,1006.88
2019-05-26T07:46:04.062Z,1029.38
2019-05-26T07:47:04.118Z,1046.25
2019-05-26T07:48:04.041Z,1040.62
2019-05-26T07:49:04.031Z,1051.88
2019-05-26T07:50:04.020Z,1046.25
2019-05-26T07:51:04.014Z,1023.75
2019-05-26T07:52:03.997Z,1029.38
2019-05-26T07:53:04.052Z,1063.12
2019-05-26T07:54:04.256Z,1080.00
2019-05-26T07:55:03.963Z,1074.38
2019-05-26T07:56:03.955Z,1080.00
2019-05-26T07:57:03.941Z,1080.00
2019-05-26T07:58:03.928Z,1091.25
2019-05-26T07:59:03.987Z,1102.50
2019-05-26T08:00:03.907Z,1113.75
2019-05-26T08:01:03.895Z,1113.75
2019-05-26T08:02:03.883Z,1130.62
2019-05-26T08:03:03.872Z,1136.25
2019-05-26T08:04:03.860Z,1125.00
2019-05-26T08:05:04.364Z,1141.88
2019-05-26T08:06:03.839Z,1136.25
2019-05-26T08:07:03.831Z,1119.38
2019-05-26T08:08:12.866Z,1108.12
2019-05-26T08:09:04.805Z,1113.75
2019-05-26T08:10:03.791Z,1125.00
2019-05-26T08:11:03.850Z,1136.25
2019-05-26T08:12:03.777Z,1125.00
2019-05-26T08:13:03.757Z,1119.38
2019-05-26T08:14:03.746Z,1147.50
2019-05-26T08:15:03.759Z,1147.50
2019-05-26T08:16:03.721Z,1141.88
2019-05-26T08:17:03.777Z,1136.25
2019-05-26T08:18:03.701Z,1164.38
2019-05-26T08:19:03.688Z,1141.88
2019-05-26T08:20:03.680Z,1153.12
2019-05-26T08:21:03.665Z,1175.62
2019-05-26T08:22:03.654Z,1231.88
2019-05-26T08:23:03.718Z,1265.62
2019-05-26T08:24:03.631Z,1305.00
2019-05-26T08:25:03.619Z,1316.25
2019-05-26T08:26:03.610Z,1293.75
2019-05-26T08:27:03.595Z,1243.12
2019-05-26T08:28:03.594Z,1181.25
2019-05-26T08:29:03.787Z,1428.75
2019-05-26T08:30:03.563Z,1276.88
2019-05-26T08:31:03.551Z,1243.12
2019-05-26T08:32:03.543Z,1282.50
2019-05-26T08:33:03.528Z,1276.88
2019-05-26T08:34:03.518Z,1344.38
2019-05-26T08:35:03.719Z,1473.75
2019-05-26T08:36:03.502Z,1440.00
2019-05-26T08:37:03.490Z,1321.88
2019-05-26T08:38:03.474Z,1293.75
2019-05-26T08:39:03.474Z,1260.00
2019-05-26T08:40:03.470Z,1231.88
2019-05-26T08:41:03.506Z,1231.88
2019-05-26T08:42:03.432Z,1220.62
2019-05-26T08:43:03.421Z,1203.75
2019-05-26T08:44:03.410Z,1220.62
2019-05-26T08:45:03.400Z,1220.62
2019-05-26T08:46:03.388Z,1209.38
2019-05-26T08:47:03.439Z,1209.38
2019-05-26T08:48:03.370Z,1209.38
2019-05-26T08:49:03.356Z,1203.75
2019-05-26T08:50:03.342Z,1220.62
2019-05-26T08:51:03.331Z,1209.38
2019-05-26T08:52:03.321Z,1175.62
2019-05-26T08:53:03.398Z,1170.00
2019-05-26T08:54:03.299Z,1192.50
2019-05-26T08:55:03.295Z,1231.88
2019-05-26T08:56:03.276Z,1220.62
2019-05-26T08:57:03.265Z,1203.75
2019-05-26T08:58:03.254Z,1220.62
2019-05-26T08:59:03.310Z,1243.12
2019-05-26T09:00:03.232Z,1316.25
2019-05-26T09:01:03.230Z,1260.00
2019-05-26T09:02:03.214Z,1226.25
2019-05-26T09:03:03.199Z,1248.75
2019-05-26T09:04:03.188Z,1254.38
2019-05-26T09:05:03.244Z,1288.12
2019-05-26T09:06:03.167Z,1321.88
2019-05-26T09:07:03.161Z,1389.38
2019-05-26T09:08:03.144Z,1389.38
2019-05-26T09:09:03.149Z,1406.25
2019-05-26T09:10:03.126Z,1440.00
2019-05-26T09:11:03.325Z,1569.38
2019-05-26T09:12:03.100Z,1642.50
2019-05-26T09:13:03.093Z,1766.25
2019-05-26T09:14:03.078Z,1996.88
2019-05-26T09:15:03.081Z,4095.00
2019-05-26T09:16:03.058Z,5045.62
2019-05-26T09:17:03.115Z,5017.50
2019-05-26T09:18:03.037Z,5298.75
2019-05-26T09:19:03.025Z,5248.12
2019-05-26T09:20:03.014Z,5096.25
2019-05-26T09:21:03.002Z,4168.12
2019-05-26T09:22:02.990Z,4128.75
2019-05-26T09:23:03.051Z,5045.62
2019-05-26T09:24:02.972Z,5028.75
2019-05-26T09:25:02.958Z,4961.25
2019-05-26T09:26:02.969Z,5006.25
2019-05-26T09:27:02.934Z,4995.00
2019-05-26T09:28:02.924Z,4910.62
2019-05-26T09:29:03.128Z,4736.25
2019-05-26T09:30:02.907Z,4860.00
2019-05-26T09:31:02.894Z,4905.00
2019-05-26T09:32:02.911Z,4888.12
2019-05-26T09:33:02.870Z,5051.25
2019-05-26T09:34:02.858Z,5113.12
2019-05-26T09:35:02.949Z,5135.62
2019-05-26T09:36:02.840Z,5163.75
2019-05-26T09:37:02.825Z,5366.25
2019-05-26T09:38:02.819Z,5304.38
2019-05-26T09:39:02.801Z,5265.00
2019-05-26T09:40:02.800Z,5062.50
2019-05-26T09:41:02.990Z,4899.38
2019-05-26T09:42:02.772Z,4910.62
2019-05-26T09:43:14.960Z,4719.38
2019-05-26T09:44:03.753Z,4730.62
2019-05-26T09:45:02.740Z,4730.62
2019-05-26T09:46:02.726Z,4775.62
2019-05-26T09:47:02.788Z,4876.88
2019-05-26T09:48:02.709Z,4978.12
2019-05-26T09:49:02.694Z,4871.25
2019-05-26T09:50:02.687Z,5175.00
2019-05-26T09:51:02.777Z,5523.75
2019-05-26T09:52:02.661Z,5574.38
2019-05-26T09:53:02.717Z,5349.38
2019-05-26T09:54:02.644Z,4500.00
2019-05-26T09:55:02.630Z,4623.75
2019-05-26T09:56:02.678Z,4578.75
2019-05-26T09:57:02.609Z,4595.62
2019-05-26T09:58:02.596Z,4741.88
2019-05-26T09:59:02.657Z,5400.00
2019-05-26T10:00:02.576Z,5585.62
2019-05-26T10:01:02.567Z,5619.38
2019-05-26T10:02:02.570Z,5298.75
2019-05-26T10:03:02.543Z,5388.75
2019-05-26T10:04:02.537Z,4978.12
2019-05-26T10:05:02.588Z,4336.88
2019-05-26T10:06:02.508Z,5011.88
2019-05-26T10:07:02.515Z,4618.12
2019-05-26T10:08:02.491Z,5197.50
2019-05-26T10:09:02.478Z,5197.50
2019-05-26T10:10:02.466Z,5647.50
2019-05-26T10:11:02.519Z,5163.75
2019-05-26T10:12:02.446Z,4921.88
2019-05-26T10:13:02.433Z,5062.50
2019-05-26T10:14:02.422Z,4668.75
2019-05-26T10:15:02.419Z,5956.88
2019-05-26T10:16:02.404Z,6069.38
2019-05-26T10:17:02.462Z,5878.12
2019-05-26T10:18:02.398Z,5653.12
2019-05-26T10:19:02.369Z,5602.50
2019-05-26T10:20:02.358Z,5619.38
2019-05-26T10:21:02.348Z,5608.12
2019-05-26T10:22:02.337Z,2120.62
2019-05-26T10:23:02.416Z,5838.75
2019-05-26T10:24:02.317Z,6046.88
2019-05-26T10:25:02.332Z,6125.62
2019-05-26T10:26:02.294Z,5855.62
2019-05-26T10:27:02.284Z,3543.75
2019-05-26T10:28:02.315Z,4860.00
2019-05-26T10:29:02.333Z,5191.88
2019-05-26T10:30:02.254Z,4944.38
2019-05-26T10:31:02.245Z,4483.12
2019-05-26T10:32:02.230Z,4156.88
2019-05-26T10:33:02.221Z,4224.38
2019-05-26T10:34:02.355Z,4736.25
2019-05-26T10:35:02.293Z,3358.12
2019-05-26T10:36:02.196Z,2986.88
2019-05-26T10:37:02.177Z,5996.25
2019-05-26T10:38:02.171Z,6266.25
2019-05-26T10:39:02.193Z,6035.62
2019-05-26T10:40:02.149Z,5563.12
2019-05-26T10:41:02.206Z,5298.75
2019-05-26T10:42:02.125Z,5439.38
2019-05-26T10:43:02.136Z,5703.75
2019-05-26T10:44:02.104Z,5940.00
2019-05-26T10:45:02.199Z,6024.38
2019-05-26T10:46:02.084Z,5546.25
2019-05-26T10:47:02.317Z,5220.00
2019-05-26T10:48:02.061Z,5383.12
2019-05-26T10:49:02.069Z,5715.00
2019-05-26T10:50:02.042Z,5866.88
2019-05-26T10:51:02.032Z,5225.62
2019-05-26T10:52:02.024Z,4376.25
2019-05-26T10:53:02.104Z,5107.50
2019-05-26T10:54:01.996Z,5107.50
2019-05-26T10:55:01.989Z,5439.38
2019-05-26T10:56:01.976Z,5805.00
2019-05-26T10:57:01.965Z,5878.12
2019-05-26T10:58:02.011Z,5602.50
2019-05-26T10:59:02.083Z,5512.50
2019-05-26T11:00:02.209Z,5574.38
2019-05-26T11:01:01.986Z,5658.75
2019-05-26T11:02:01.915Z,5782.50
2019-05-26T11:03:01.900Z,5450.62
2019-05-26T11:04:01.919Z,5214.38
2019-05-26T11:05:01.942Z,5214.38
2019-05-26T11:06:01.974Z,5658.75
2019-05-26T11:07:01.901Z,5512.50
2019-05-26T11:08:01.867Z,5698.12
2019-05-26T11:09:01.841Z,5535.00
2019-05-26T11:10:01.971Z,5051.25
2019-05-26T11:11:02.032Z,5169.38
2019-05-26T11:12:01.807Z,4961.25
2019-05-26T11:13:01.798Z,5765.62
2019-05-26T11:14:03.434Z,5760.00
2019-05-26T11:15:01.795Z,5619.38
2019-05-26T11:16:01.766Z,5461.88
2019-05-26T11:17:01.963Z,3667.50
2019-05-26T11:18:01.746Z,4623.75
2019-05-26T11:19:01.738Z,4483.12
2019-05-26T11:20:01.763Z,3268.12
2019-05-26T11:21:01.716Z,3931.88
2019-05-26T11:22:01.742Z,4072.50
2019-05-26T11:23:01.882Z,4117.50
2019-05-26T11:24:01.696Z,4556.25
2019-05-26T11:25:01.670Z,4668.75
2019-05-26T11:26:01.662Z,5191.88
2019-05-26T11:27:10.145Z,5394.38
2019-05-26T11:28:02.699Z,6001.88
2019-05-26T11:29:01.633Z,5551.88
2019-05-26T11:30:01.625Z,5225.62
2019-05-26T11:31:01.604Z,5647.50
2019-05-26T11:32:01.664Z,6069.38
2019-05-26T11:33:01.582Z,6063.75
2019-05-26T11:34:01.960Z,5602.50
2019-05-26T11:35:02.369Z,5580.00
2019-05-26T11:36:01.549Z,5923.12
2019-05-26T11:37:01.541Z,5703.75
2019-05-26T11:38:01.546Z,4961.25
2019-05-26T11:39:01.546Z,4494.38
2019-05-26T11:40:01.752Z,4066.88
2019-05-26T11:41:01.501Z,4713.75
2019-05-26T11:42:13.014Z,3819.38
2019-05-26T11:43:15.645Z,3723.75
2019-05-26T11:44:15.333Z,5338.12
2019-05-26T11:45:02.527Z,5883.75
2019-05-26T11:46:01.444Z,5911.88
2019-05-26T11:47:01.435Z,5506.88
2019-05-26T11:48:01.421Z,5310.00
2019-05-26T11:49:01.413Z,5737.50
2019-05-26T11:50:01.412Z,6080.62
2019-05-26T11:51:01.455Z,6148.12
2019-05-26T11:52:01.380Z,5833.12
2019-05-26T11:53:01.368Z,6069.38
2019-05-26T11:54:01.357Z,6266.25
2019-05-26T11:55:01.352Z,6091.88
2019-05-26T11:56:01.338Z,5776.88
2019-05-26T11:57:01.396Z,5591.25
2019-05-26T11:58:01.315Z,5861.25
2019-05-26T11:59:01.305Z,5883.75
2019-05-26T12:00:01.435Z,5754.38
2019-05-26T12:01:01.291Z,5658.75
2019-05-26T12:02:01.279Z,5771.25
2019-05-26T12:03:01.475Z,6035.62
2019-05-26T12:04:01.254Z,5805.00
2019-05-26T12:05:01.251Z,5788.12
2019-05-26T12:06:01.315Z,6384.38
2019-05-26T12:07:04.354Z,6333.75
2019-05-26T12:08:01.291Z,5715.00
2019-05-26T12:09:01.337Z,5355.00
2019-05-26T12:10:01.245Z,5731.88
2019-05-26T12:11:01.179Z,5535.00
2019-05-26T12:12:01.186Z,5158.12
2019-05-26T12:13:01.163Z,5574.38
2019-05-26T12:14:01.146Z,5563.12
2019-05-26T12:15:01.210Z,5535.00
2019-05-26T12:16:01.129Z,5686.88
2019-05-26T12:17:01.112Z,6024.38
2019-05-26T12:18:01.102Z,5833.12
2019-05-26T12:19:01.095Z,5518.12
2019-05-26T12:20:04.913Z,4792.50
2019-05-26T12:21:01.132Z,5788.12
2019-05-26T12:22:01.059Z,5776.88
2019-05-26T12:23:01.049Z,5124.38
2019-05-26T12:24:01.037Z,5641.88
2019-05-26T12:25:01.027Z,5743.12
2019-05-26T12:26:01.020Z,5625.00
2019-05-26T12:27:01.071Z,5726.25
2019-05-26T12:28:01.043Z,5720.62
2019-05-26T12:29:00.985Z,6035.62
2019-05-26T12:30:00.975Z,5838.75